createdAt,value
2018-09-12T00:06:23.002Z,0.0
2018-09-12T00:16:36.271Z,0.0
2018-09-12T00:26:50.651Z,0.0
2018-09-12T00:37:05.235Z,0.0
2018-09-12T00:47:18.992Z,0.0
2018-09-12T00:57:29.950Z,0.0
2018-09-12T01:07:43.109Z,0.0
2018-09-12T01:17:56.649Z,0.0
2018-09-12T01:28:10.707Z,0.0
2018-09-12T01:38:24.708Z,0.0
2018-09-12T01:49:09.789Z,0.0
2018-09-12T01:59:24.962Z,0.0
2018-09-12T02:09:36.587Z,0.0
2018-09-12T02:20:14.265Z,0.0
2018-09-12T02:30:27.654Z,0.0
2018-09-12T02:40:41.841Z,0.0
2018-09-12T02:50:57.006Z,0.0
2018-09-12T03:01:12.261Z,0.0
2018-09-12T03:11:26.876Z,0.0
2018-09-12T03:22:12.022Z,0.0
2018-09-12T03:32:23.941Z,0.0
2018-09-12T03:42:35.782Z,0.0
2018-09-12T03:52:49.028Z,0.0
2018-09-12T04:03:02.551Z,0.0
2018-09-12T04:13:14.025Z,0.0
2018-09-12T04:23:28.306Z,0.0
2018-09-12T04:33:42.327Z,0.0
2018-09-12T04:43:56.557Z,8.0
2018-09-12T04:54:11.017Z,24.0
2018-09-12T05:04:24.998Z,96.0
2018-09-12T05:15:10.767Z,124.0
2018-09-12T05:25:25.478Z,208.0
2018-09-12T05:35:39.257Z,380.0
2018-09-12T05:46:25.024Z,328.0
2018-09-12T05:56:39.188Z,484.0
2018-09-12T06:06:53.375Z,760.0
2018-09-12T06:17:38.104Z,1048.0
2018-09-12T06:27:51.224Z,2348.0
2018-09-12T06:38:05.200Z,2528.0
2018-09-12T06:48:18.901Z,6352.0
2018-09-12T06:58:32.928Z,3948.0
2018-09-12T07:09:48.649Z,2228.0
2018-09-12T07:22:36.092Z,2276.0
2018-09-12T07:32:49.320Z,5256.0
2018-09-12T07:43:03.657Z,9648.0
2018-09-12T07:53:49.190Z,5276.0
2018-09-12T08:05:03.341Z,3596.0
2018-09-12T08:16:46.612Z,4956.0
2018-09-12T08:27:01.903Z,1112.0
2018-09-12T08:37:15.648Z,1164.0
2018-09-12T08:47:28.414Z,1204.0
2018-09-12T08:57:46.790Z,1384.0
2018-09-12T09:08:32.295Z,2136.0
2018-09-12T09:19:17.957Z,2708.0
2018-09-12T09:41:09.938Z,2284.0
2018-09-12T09:51:21.653Z,3616.0
2018-09-12T10:01:35.297Z,4008.0
2018-09-12T10:12:27.111Z,5180.0
2018-09-12T10:22:41.204Z,5384.0
2018-09-12T10:33:29.522Z,6928.0
2018-09-12T10:54:39.586Z,3236.0
2018-09-12T11:05:28.286Z,2220.0
2018-09-12T11:15:41.909Z,2548.0
2018-09-12T11:26:27.282Z,2448.0
2018-09-12T11:36:41.298Z,5024.0
2018-09-12T11:47:28.376Z,5424.0
2018-09-12T11:57:42.580Z,4192.0
2018-09-12T12:07:56.214Z,3960.0
2018-09-12T12:18:07.815Z,5964.0
2018-09-12T12:28:19.963Z,6688.0
2018-09-12T12:38:34.904Z,5208.0
2018-09-12T12:48:49.166Z,4932.0
2018-09-12T12:59:03.331Z,9580.0
2018-09-12T13:09:17.997Z,3276.0
2018-09-12T13:20:04.341Z,3060.0
2018-09-12T13:30:18.827Z,4888.0
2018-09-12T13:40:31.194Z,4552.0
2018-09-12T13:51:16.345Z,4980.0
2018-09-12T14:01:30.722Z,4776.0
2018-09-12T14:11:45.241Z,4444.0
2018-09-12T14:21:59.499Z,5188.0
2018-09-12T14:32:46.757Z,5400.0
2018-09-12T14:43:01.426Z,3532.0
2018-09-12T14:53:15.824Z,8324.0
2018-09-12T15:03:30.088Z,6732.0
2018-09-12T15:14:15.395Z,10724.0
2018-09-12T15:24:30.085Z,5224.0
2018-09-12T15:34:44.001Z,1472.0
2018-09-12T15:51:17.323Z,3324.0
2018-09-12T16:02:03.218Z,1160.0
2018-09-12T16:12:56.747Z,960.0
2018-09-12T16:23:10.839Z,892.0
2018-09-12T16:33:56.925Z,1164.0
2018-09-12T16:44:42.885Z,896.0
2018-09-12T16:54:57.140Z,1072.0
2018-09-12T17:05:10.881Z,808.0
2018-09-12T17:15:25.394Z,560.0
2018-09-12T17:26:10.947Z,300.0
2018-09-12T17:36:56.744Z,144.0
2018-09-12T17:47:11.130Z,92.0
2018-09-12T17:57:25.579Z,28.0
2018-09-12T18:08:13.157Z,4.0
2018-09-12T18:18:58.905Z,0.0
2018-09-12T18:29:51.523Z,0.0
2018-09-12T18:50:21.981Z,0.0
2018-09-12T19:00:36.786Z,0.0
2018-09-12T19:10:50.574Z,0.0
2018-09-12T19:31:21.670Z,0.0
2018-09-12T19:41:35.283Z,0.0
2018-09-12T19:51:49.746Z,0.0
2018-09-12T20:02:35.275Z,0.0
2018-09-12T20:12:49.375Z,0.0
2018-09-12T20:23:03.482Z,0.0
2018-09-12T20:33:17.769Z,0.0
2018-09-12T20:44:42.295Z,0.0
2018-09-12T20:55:36.259Z,0.0
2018-09-12T21:05:50.653Z,0.0
2018-09-12T21:16:04.656Z,0.0
2018-09-12T21:26:50.213Z,0.0
2018-09-12T21:37:03.614Z,0.0
2018-09-12T21:47:17.745Z,0.0
2018-09-12T21:57:30.854Z,0.0
2018-09-12T22:07:44.190Z,0.0
2018-09-12T22:17:58.320Z,0.0
2018-09-12T22:28:11.479Z,0.0
2018-09-12T22:38:24.772Z,0.0
2018-09-12T22:48:36.168Z,0.0
2018-09-12T22:58:50.099Z,0.0
2018-09-12T23:09:01.659Z,0.0
2018-09-12T23:19:12.941Z,0.0
2018-09-12T23:29:24.116Z,0.0
2018-09-12T23:39:38.341Z,0.0
2018-09-12T23:49:52.565Z,0.0
